createdAt,value
2019-05-22T00:00:55.098Z,13.54
2019-05-22T00:06:01.459Z,12.36
2019-05-22T00:11:07.673Z,12.37
2019-05-22T00:16:13.944Z,11.37
2019-05-22T00:21:20.275Z,11.32
2019-05-22T00:26:26.748Z,11.16
2019-05-22T00:31:32.980Z,11.17
2019-05-22T00:36:39.381Z,11.10
2019-05-22T00:41:45.592Z,11.64
2019-05-22T00:46:51.876Z,10.98
2019-05-22T00:51:58.269Z,10.96
2019-05-22T00:57:04.803Z,11.64
2019-05-22T01:02:11.276Z,11.61
2019-05-22T01:07:17.821Z,12.39
2019-05-22T01:12:24.306Z,13.42
2019-05-22T01:17:30.676Z,13.63
2019-05-22T01:22:36.960Z,13.93
2019-05-22T01:27:43.205Z,14.70
2019-05-22T01:32:49.741Z,15.32
2019-05-22T01:37:55.990Z,15.70
2019-05-22T01:43:02.260Z,16.41
2019-05-22T01:48:08.525Z,16.56
2019-05-22T01:53:14.932Z,16.03
2019-05-22T01:58:21.145Z,15.80
2019-05-22T02:03:27.505Z,16.78
2019-05-22T02:08:33.769Z,16.78
2019-05-22T02:13:40.166Z,15.96
2019-05-22T02:18:46.387Z,16.61
2019-05-22T02:23:52.915Z,16.66
2019-05-22T02:28:59.237Z,17.36
2019-05-22T02:34:05.562Z,16.90
2019-05-22T02:39:12.030Z,16.47
2019-05-22T02:44:18.291Z,17.21
2019-05-22T02:49:24.615Z,17.01
2019-05-22T02:54:30.973Z,15.56
2019-05-22T02:59:39.504Z,16.61
2019-05-22T03:04:45.936Z,16.66
2019-05-22T03:09:52.279Z,17.37
2019-05-22T03:14:58.441Z,18.39
2019-05-22T03:20:04.658Z,17.96
2019-05-22T03:25:11.246Z,17.50
2019-05-22T03:30:17.841Z,18.01
2019-05-22T03:35:24.177Z,18.56
2019-05-22T03:40:30.538Z,18.15
2019-05-22T03:45:36.826Z,18.08
2019-05-22T03:50:43.147Z,17.11
2019-05-22T03:55:49.573Z,17.13
2019-05-22T04:00:56.139Z,17.35
2019-05-22T04:06:02.589Z,16.98
2019-05-22T04:11:08.956Z,16.86
2019-05-22T04:16:15.254Z,16.19
2019-05-22T04:21:21.853Z,16.87
2019-05-22T04:26:28.444Z,17.03
2019-05-22T04:31:35.272Z,18.03
2019-05-22T04:36:41.597Z,20.06
2019-05-22T04:41:48.198Z,19.57
2019-05-22T04:46:54.495Z,19.18
2019-05-22T04:52:00.904Z,18.09
2019-05-22T04:57:07.326Z,18.85
2019-05-22T05:02:13.473Z,18.85
2019-05-22T05:07:19.821Z,19.04
2019-05-22T05:12:26.237Z,19.31
2019-05-22T05:17:32.632Z,18.12
2019-05-22T05:22:38.936Z,17.33
2019-05-22T05:27:45.156Z,17.58
2019-05-22T05:32:51.790Z,17.48
2019-05-22T05:37:58.071Z,17.84
2019-05-22T05:43:04.320Z,16.90
2019-05-22T05:48:10.731Z,18.08
2019-05-22T05:53:17.247Z,17.39
2019-05-22T05:58:23.695Z,16.76
2019-05-22T06:03:30.642Z,16.85
2019-05-22T06:08:37.116Z,14.75
2019-05-22T06:13:44.777Z,14.05
2019-05-22T06:18:51.333Z,13.77
2019-05-22T06:23:57.975Z,13.68
2019-05-22T06:29:04.920Z,13.50
2019-05-22T06:34:11.751Z,13.91
2019-05-22T06:39:18.011Z,13.14
2019-05-22T06:44:24.860Z,13.96
2019-05-22T06:49:31.044Z,13.68
2019-05-22T06:54:37.248Z,12.17
2019-05-22T06:59:43.807Z,13.17
2019-05-22T07:04:51.818Z,12.36
2019-05-22T07:09:58.044Z,12.69
2019-05-22T07:15:04.360Z,12.44
2019-05-22T07:20:11.021Z,12.78
2019-05-22T07:25:17.303Z,11.81
2019-05-22T07:30:23.826Z,11.59
2019-05-22T07:35:46.061Z,11.79
2019-05-22T07:40:36.365Z,11.41
2019-05-22T07:45:42.633Z,10.83
2019-05-22T07:50:49.611Z,10.61
2019-05-22T07:55:56.564Z,10.14
2019-05-22T08:01:04.708Z,8.92
2019-05-22T08:06:11.211Z,10.00
2019-05-22T08:11:17.602Z,9.12
2019-05-22T08:16:24.020Z,8.90
2019-05-22T08:21:30.774Z,8.61
2019-05-22T08:26:53.182Z,8.61
2019-05-22T08:31:43.240Z,8.55
2019-05-22T08:36:49.955Z,13.23
2019-05-22T08:41:56.415Z,9.22
2019-05-22T08:47:02.756Z,7.62
2019-05-22T08:52:22.557Z,7.14
2019-05-22T08:57:15.060Z,7.44
2019-05-22T09:02:21.381Z,7.80
2019-05-22T09:07:27.693Z,6.75
2019-05-22T09:12:33.919Z,6.16
2019-05-22T09:17:40.239Z,5.88
2019-05-22T09:22:46.608Z,6.20
2019-05-22T09:27:53.015Z,6.57
2019-05-22T09:32:59.677Z,6.19
2019-05-22T09:38:06.192Z,5.89
2019-05-22T09:43:12.647Z,5.64
2019-05-22T09:48:19.120Z,5.17
2019-05-22T09:53:25.566Z,5.81
2019-05-22T09:58:31.850Z,5.55
2019-05-22T10:03:38.245Z,5.13
2019-05-22T10:08:44.987Z,5.10
2019-05-22T10:13:51.860Z,5.07
2019-05-22T10:18:58.489Z,5.57
2019-05-22T10:24:04.861Z,4.75
2019-05-22T10:29:11.684Z,4.34
2019-05-22T10:34:18.188Z,4.28
2019-05-22T10:39:24.976Z,3.95
2019-05-22T10:44:31.342Z,6.07
2019-05-22T10:49:37.731Z,4.85
2019-05-22T10:54:44.150Z,5.45
2019-05-22T10:59:50.403Z,4.67
2019-05-22T11:04:56.743Z,4.01
2019-05-22T11:10:03.127Z,4.15
2019-05-22T11:15:09.336Z,3.52
2019-05-22T11:20:15.539Z,3.73
2019-05-22T11:25:21.852Z,3.98
2019-05-22T11:30:28.229Z,4.12
2019-05-22T11:35:34.447Z,8.12
2019-05-22T11:40:40.753Z,4.09
2019-05-22T11:45:47.060Z,3.66
2019-05-22T11:50:53.281Z,4.91
2019-05-22T11:55:59.808Z,23.48
2019-05-22T12:01:06.092Z,7.87
2019-05-22T12:06:12.436Z,3.93
2019-05-22T12:11:18.680Z,3.30
2019-05-22T12:16:25.039Z,4.17
2019-05-22T12:21:31.084Z,2.97
2019-05-22T12:26:37.317Z,2.55
2019-05-22T12:31:43.571Z,2.73
2019-05-22T12:36:51.401Z,3.20
2019-05-22T12:41:57.950Z,3.05
2019-05-22T12:47:04.265Z,5.20
2019-05-22T12:52:10.475Z,2.50
2019-05-22T12:57:16.712Z,3.38
2019-05-22T13:02:23.145Z,2.41
2019-05-22T13:07:29.486Z,2.32
2019-05-22T13:12:35.868Z,2.98
2019-05-22T13:17:42.249Z,2.16
2019-05-22T13:22:48.834Z,2.02
2019-05-22T13:27:55.196Z,2.49
2019-05-22T13:33:01.783Z,2.45
2019-05-22T13:38:08.641Z,2.12
2019-05-22T13:43:15.164Z,2.47
2019-05-22T13:48:21.637Z,2.68
2019-05-22T13:53:28.249Z,2.32
2019-05-22T13:58:35.685Z,2.73
2019-05-22T14:03:42.181Z,2.89
2019-05-22T14:08:48.443Z,2.91
2019-05-22T14:13:54.642Z,3.19
2019-05-22T14:19:00.866Z,2.25
2019-05-22T14:24:07.609Z,2.18
2019-05-22T14:29:14.252Z,2.12
2019-05-22T14:34:20.608Z,2.71
2019-05-22T14:39:27.218Z,2.34
2019-05-22T14:44:34.506Z,2.36
2019-05-22T14:49:41.321Z,2.44
2019-05-22T14:54:47.869Z,2.37
2019-05-22T14:59:54.319Z,2.34
2019-05-22T15:05:00.580Z,2.13
2019-05-22T15:10:06.696Z,2.27
2019-05-22T15:15:13.427Z,2.21
2019-05-22T15:20:19.800Z,1.92
2019-05-22T15:25:26.212Z,2.08
2019-05-22T15:30:32.529Z,2.21
2019-05-22T15:35:38.857Z,2.24
2019-05-22T15:40:45.349Z,2.43
2019-05-22T15:45:51.695Z,2.34
2019-05-22T15:50:58.000Z,2.58
2019-05-22T15:56:04.178Z,2.29
2019-05-22T16:01:10.375Z,2.50
2019-05-22T16:06:16.729Z,2.72
2019-05-22T16:11:23.317Z,4.25
2019-05-22T16:16:29.485Z,3.14
2019-05-22T16:21:35.929Z,2.48
2019-05-22T16:26:42.786Z,2.45
2019-05-22T16:31:51.716Z,2.68
2019-05-22T16:36:58.516Z,3.66
2019-05-22T16:42:05.192Z,3.07
2019-05-22T16:47:11.416Z,3.02
2019-05-22T16:52:17.707Z,2.91
2019-05-22T16:57:24.229Z,2.57
2019-05-22T17:02:31.000Z,2.56
2019-05-22T17:07:37.393Z,2.60
2019-05-22T17:12:44.407Z,2.35
2019-05-22T17:17:50.680Z,2.98
2019-05-22T17:22:56.866Z,2.97
2019-05-22T17:28:03.123Z,2.53
2019-05-22T17:33:09.749Z,2.95
2019-05-22T17:38:17.115Z,2.58
2019-05-22T17:43:23.838Z,2.47
2019-05-22T17:48:30.203Z,3.01
2019-05-22T17:53:36.549Z,2.55
2019-05-22T17:58:42.887Z,2.62
2019-05-22T18:03:49.349Z,2.42
2019-05-22T18:08:55.641Z,2.60
2019-05-22T18:14:02.479Z,2.19
2019-05-22T18:19:08.817Z,2.20
2019-05-22T18:24:15.207Z,2.13
2019-05-22T18:29:21.979Z,2.41
2019-05-22T18:34:28.722Z,2.44
2019-05-22T18:39:35.019Z,2.08
2019-05-22T18:44:41.252Z,2.40
2019-05-22T18:49:47.750Z,2.51
2019-05-22T18:54:54.300Z,2.59
2019-05-22T19:00:04.867Z,2.60
2019-05-22T19:05:02.187Z,2.75
2019-05-22T19:10:08.289Z,2.51
2019-05-22T19:15:15.335Z,2.55
2019-05-22T19:20:22.154Z,3.59
2019-05-22T19:25:28.898Z,3.03
2019-05-22T19:30:35.412Z,3.00
2019-05-22T19:35:41.688Z,3.64
2019-05-22T19:40:48.497Z,3.69
2019-05-22T19:45:54.749Z,3.26
2019-05-22T19:51:02.095Z,3.10
2019-05-22T19:56:08.577Z,2.89
2019-05-22T20:01:14.881Z,2.95
2019-05-22T20:06:22.577Z,3.04
2019-05-22T20:11:28.777Z,3.18
2019-05-22T20:16:35.084Z,3.51
2019-05-22T20:21:41.896Z,2.98
2019-05-22T20:26:48.153Z,3.02
2019-05-22T20:31:54.606Z,3.65
2019-05-22T20:37:01.131Z,3.21
2019-05-22T20:42:07.663Z,3.59
2019-05-22T20:47:13.898Z,3.43
2019-05-22T20:52:20.026Z,3.52
2019-05-22T20:57:26.713Z,3.72
2019-05-22T21:02:32.992Z,3.88
2019-05-22T21:07:39.337Z,3.95
2019-05-22T21:12:45.964Z,4.47
2019-05-22T21:17:52.523Z,3.60
2019-05-22T21:23:01.326Z,3.64
2019-05-22T21:28:07.468Z,3.89
2019-05-22T21:33:13.918Z,3.94
2019-05-22T21:38:20.247Z,4.26
2019-05-22T21:43:26.518Z,4.09
2019-05-22T21:48:33.097Z,4.69
2019-05-22T21:53:40.201Z,4.95
2019-05-22T21:58:46.633Z,4.70
2019-05-22T22:03:53.328Z,5.03
2019-05-22T22:08:59.852Z,4.74
2019-05-22T22:14:06.164Z,4.53
2019-05-22T22:19:12.411Z,4.61
2019-05-22T22:24:18.829Z,4.52
2019-05-22T22:29:25.112Z,4.64
2019-05-22T22:34:31.315Z,4.82
2019-05-22T22:39:37.444Z,4.98
2019-05-22T22:44:43.780Z,5.16
2019-05-22T22:49:50.040Z,5.41
2019-05-22T22:54:56.511Z,5.75
2019-05-22T23:00:02.569Z,6.16
2019-05-22T23:05:08.887Z,6.23
2019-05-22T23:10:15.289Z,6.41
2019-05-22T23:15:21.440Z,7.01
2019-05-22T23:20:27.659Z,7.46
2019-05-22T23:25:33.784Z,8.14
2019-05-22T23:30:40.043Z,8.12
2019-05-22T23:35:46.189Z,8.22
2019-05-22T23:40:52.374Z,8.75
2019-05-22T23:45:58.462Z,8.38
2019-05-22T23:51:04.630Z,8.22
2019-05-22T23:56:10.967Z,8.66
